Langley Air Force Base Hampton US
ICAO: KLFI
IATA: LFI
Category: Large
Scheduled Services: No

Elevation: 11 ft
TransAlt. 18000 ft.

Airport Communications:
NORFOLK APP/DEP:124.9
ATIS:27.01
CLNC DEL:118.85
GND:121.7
NASA OPS:123.375
PMSV METRO:23.98
CNSOLIDATED CMD POST:25.125
PTD:141.75
TWR:125

KLFI Zoom In..

Runways:

(A) RW 08 length 10002 ft width 150 ft
ILS 109.90 / hdg 78

(B) RW 26 length 10002 ft width 150 ft
ILS 109.90 / hdg 258

Location; KLFI
Day. 20 / Time. 01.56 Zulu
* Altimeter: 30.09
* Temperature: 25° c. 77°f.
* Wind from: 200° Speed 04 kn.
Dewpoint: 19° c.
Visibility: 10 Statute Miles.
Clouds: Few 7000 ft.

KLFI 200156Z AUTO 20004KT 10SM FEW070 25/19 A3009 RMK AO2 SLP196 T02460190 $


Wind From 200°
Speed 04 kn.

 
 
jpsmedia.com for Web Design worldairports.se 2018   terms of use